sensor_id;sensor_type;location;lat;lon;timestamp;P1;durP1;ratioP1;P2;durP2;ratioP2
76837;SDS011;65797;47.352;8.164;2024-03-23T00:55:27;8.77;;;3.70;;
76837;SDS011;65797;47.352;8.164;2024-03-23T01:45:49;5.83;;;3.03;;
76837;SDS011;65797;47.352;8.164;2024-03-23T01:48:15;3.13;;;2.83;;
76837;SDS011;65797;47.352;8.164;2024-03-23T01:50:41;2.80;;;2.60;;
76837;SDS011;65797;47.352;8.164;2024-03-23T01:53:07;4.03;;;3.00;;
76837;SDS011;65797;47.352;8.164;2024-03-23T01:55:33;3.50;;;3.00;;
76837;SDS011;65797;47.352;8.164;2024-03-23T01:57:58;8.10;;;3.10;;
76837;SDS011;65797;47.352;8.164;2024-03-23T02:03:31;3.80;;;2.80;;
76837;SDS011;65797;47.352;8.164;2024-03-23T02:05:57;4.40;;;2.70;;
76837;SDS011;65797;47.352;8.164;2024-03-23T02:08:23;3.70;;;2.90;;
76837;SDS011;65797;47.352;8.164;2024-03-23T02:10:50;2.60;;;2.37;;
76837;SDS011;65797;47.352;8.164;2024-03-23T02:13:17;5.10;;;2.93;;
76837;SDS011;65797;47.352;8.164;2024-03-23T02:15:43;3.50;;;3.20;;
76837;SDS011;65797;47.352;8.164;2024-03-23T02:18:09;5.57;;;2.67;;
76837;SDS011;65797;47.352;8.164;2024-03-23T02:20:36;2.70;;;2.50;;
76837;SDS011;65797;47.352;8.164;2024-03-23T02:23:02;3.83;;;2.90;;
76837;SDS011;65797;47.352;8.164;2024-03-23T02:25:31;4.00;;;3.07;;
76837;SDS011;65797;47.352;8.164;2024-03-23T02:27:58;2.90;;;2.40;;
76837;SDS011;65797;47.352;8.164;2024-03-23T02:30:25;6.80;;;3.23;;
76837;SDS011;65797;47.352;8.164;2024-03-23T02:32:51;7.30;;;3.20;;
76837;SDS011;65797;47.352;8.164;2024-03-23T02:35:16;4.03;;;2.87;;
76837;SDS011;65797;47.352;8.164;2024-03-23T02:37:42;5.10;;;3.13;;
76837;SDS011;65797;47.352;8.164;2024-03-23T02:40:08;4.57;;;3.07;;
76837;SDS011;65797;47.352;8.164;2024-03-23T02:42:34;4.23;;;2.90;;
76837;SDS011;65797;47.352;8.164;2024-03-23T02:44:59;7.17;;;3.40;;
76837;SDS011;65797;47.352;8.164;2024-03-23T02:47:25;7.57;;;3.20;;
76837;SDS011;65797;47.352;8.164;2024-03-23T02:49:51;5.40;;;3.03;;
76837;SDS011;65797;47.352;8.164;2024-03-23T02:52:16;3.67;;;2.63;;
76837;SDS011;65797;47.352;8.164;2024-03-23T02:54:42;5.30;;;2.90;;
76837;SDS011;65797;47.352;8.164;2024-03-23T02:57:10;5.57;;;3.50;;
76837;SDS011;65797;47.352;8.164;2024-03-23T02:59:36;9.07;;;3.00;;
76837;SDS011;65797;47.352;8.164;2024-03-23T03:02:01;5.50;;;2.33;;
76837;SDS011;65797;47.352;8.164;2024-03-23T03:04:29;2.70;;;2.30;;
76837;SDS011;65797;47.352;8.164;2024-03-23T03:06:56;5.00;;;2.80;;
76837;SDS011;65797;47.352;8.164;2024-03-23T03:09:21;7.03;;;2.30;;
76837;SDS011;65797;47.352;8.164;2024-03-23T03:11:47;4.37;;;3.00;;
76837;SDS011;65797;47.352;8.164;2024-03-23T03:14:13;3.53;;;2.00;;
76837;SDS011;65797;47.352;8.164;2024-03-23T03:16:38;2.50;;;2.17;;
76837;SDS011;65797;47.352;8.164;2024-03-23T03:19:04;2.53;;;2.33;;
76837;SDS011;65797;47.352;8.164;2024-03-23T03:21:31;2.63;;;2.03;;
76837;SDS011;65797;47.352;8.164;2024-03-23T03:23:57;4.63;;;2.43;;
76837;SDS011;65797;47.352;8.164;2024-03-23T03:26:23;5.57;;;2.43;;
76837;SDS011;65797;47.352;8.164;2024-03-23T03:28:49;3.23;;;2.20;;
76837;SDS011;65797;47.352;8.164;2024-03-23T03:31:15;2.37;;;2.17;;
76837;SDS011;65797;47.352;8.164;2024-03-23T03:33:42;1.83;;;1.73;;
76837;SDS011;65797;47.352;8.164;2024-03-23T03:36:08;3.03;;;1.63;;
76837;SDS011;65797;47.352;8.164;2024-03-23T03:38:35;2.20;;;1.80;;
76837;SDS011;65797;47.352;8.164;2024-03-23T03:41:01;2.87;;;2.13;;
76837;SDS011;65797;47.352;8.164;2024-03-23T03:43:27;1.60;;;1.50;;
76837;SDS011;65797;47.352;8.164;2024-03-23T03:45:53;1.87;;;1.67;;
76837;SDS011;65797;47.352;8.164;2024-03-23T03:48:19;2.50;;;1.93;;
76837;SDS011;65797;47.352;8.164;2024-03-23T03:50:45;2.87;;;1.77;;
76837;SDS011;65797;47.352;8.164;2024-03-23T03:55:46;1.63;;;1.53;;
76837;SDS011;65797;47.352;8.164;2024-03-23T03:58:12;1.43;;;1.40;;
76837;SDS011;65797;47.352;8.164;2024-03-23T04:00:38;5.40;;;1.63;;
76837;SDS011;65797;47.352;8.164;2024-03-23T04:03:04;1.53;;;1.43;;
76837;SDS011;65797;47.352;8.164;2024-03-23T04:05:29;2.60;;;1.63;;
76837;SDS011;65797;47.352;8.164;2024-03-23T04:07:55;2.40;;;1.67;;
76837;SDS011;65797;47.352;8.164;2024-03-23T04:10:21;3.80;;;2.07;;
76837;SDS011;65797;47.352;8.164;2024-03-23T04:12:47;2.10;;;1.87;;
76837;SDS011;65797;47.352;8.164;2024-03-23T04:15:13;1.73;;;1.50;;
76837;SDS011;65797;47.352;8.164;2024-03-23T05:29:24;2.60;;;2.20;;
76837;SDS011;65797;47.352;8.164;2024-03-23T06:51:20;4.40;;;2.50;;
76837;SDS011;65797;47.352;8.164;2024-03-23T06:53:45;2.50;;;2.30;;
76837;SDS011;65797;47.352;8.164;2024-03-23T06:56:11;2.53;;;2.20;;
76837;SDS011;65797;47.352;8.164;2024-03-23T07:03:54;2.23;;;2.03;;
76837;SDS011;65797;47.352;8.164;2024-03-23T08:52:31;3.23;;;1.50;;
76837;SDS011;65797;47.352;8.164;2024-03-23T08:54:57;2.70;;;1.10;;
76837;SDS011;65797;47.352;8.164;2024-03-23T08:57:23;3.13;;;1.30;;
76837;SDS011;65797;47.352;8.164;2024-03-23T08:59:49;5.30;;;1.57;;
76837;SDS011;65797;47.352;8.164;2024-03-23T09:02:15;6.10;;;1.77;;
76837;SDS011;65797;47.352;8.164;2024-03-23T09:04:41;2.10;;;1.10;;
76837;SDS011;65797;47.352;8.164;2024-03-23T09:07:06;3.00;;;1.20;;
76837;SDS011;65797;47.352;8.164;2024-03-23T09:09:32;7.53;;;1.70;;
76837;SDS011;65797;47.352;8.164;2024-03-23T09:11:57;8.10;;;1.30;;
76837;SDS011;65797;47.352;8.164;2024-03-23T09:14:23;4.73;;;1.43;;
76837;SDS011;65797;47.352;8.164;2024-03-23T09:16:49;2.93;;;1.33;;
76837;SDS011;65797;47.352;8.164;2024-03-23T09:19:16;5.47;;;1.70;;
76837;SDS011;65797;47.352;8.164;2024-03-23T09:21:42;4.37;;;1.40;;
76837;SDS011;65797;47.352;8.164;2024-03-23T09:24:08;7.00;;;2.10;;
76837;SDS011;65797;47.352;8.164;2024-03-23T09:26:34;3.83;;;1.17;;
76837;SDS011;65797;47.352;8.164;2024-03-23T09:28:59;4.03;;;1.60;;
76837;SDS011;65797;47.352;8.164;2024-03-23T09:31:25;7.67;;;2.07;;
76837;SDS011;65797;47.352;8.164;2024-03-23T09:33:51;5.30;;;1.67;;
76837;SDS011;65797;47.352;8.164;2024-03-23T09:36:16;7.33;;;1.93;;
76837;SDS011;65797;47.352;8.164;2024-03-23T09:38:42;14.13;;;1.93;;
76837;SDS011;65797;47.352;8.164;2024-03-23T09:41:08;3.10;;;1.30;;
76837;SDS011;65797;47.352;8.164;2024-03-23T09:43:34;4.30;;;1.50;;
76837;SDS011;65797;47.352;8.164;2024-03-23T09:46:03;9.00;;;1.30;;
76837;SDS011;65797;47.352;8.164;2024-03-23T09:48:30;4.13;;;1.37;;
76837;SDS011;65797;47.352;8.164;2024-03-23T09:50:56;3.77;;;1.23;;
76837;SDS011;65797;47.352;8.164;2024-03-23T09:53:22;4.87;;;2.17;;
76837;SDS011;65797;47.352;8.164;2024-03-23T09:55:48;4.07;;;1.60;;
76837;SDS011;65797;47.352;8.164;2024-03-23T09:58:15;5.63;;;1.77;;
76837;SDS011;65797;47.352;8.164;2024-03-23T10:00:41;2.87;;;1.20;;
76837;SDS011;65797;47.352;8.164;2024-03-23T10:03:07;7.57;;;1.23;;
76837;SDS011;65797;47.352;8.164;2024-03-23T10:05:36;4.80;;;1.43;;
76837;SDS011;65797;47.352;8.164;2024-03-23T10:10:40;5.90;;;1.50;;
76837;SDS011;65797;47.352;8.164;2024-03-23T10:13:06;7.87;;;1.43;;
76837;SDS011;65797;47.352;8.164;2024-03-23T10:15:36;1.50;;;1.07;;
76837;SDS011;65797;47.352;8.164;2024-03-23T10:18:18;6.93;;;1.70;;
76837;SDS011;65797;47.352;8.164;2024-03-23T10:23:33;4.63;;;1.33;;
76837;SDS011;65797;47.352;8.164;2024-03-23T10:31:27;5.30;;;1.30;;
76837;SDS011;65797;47.352;8.164;2024-03-23T10:33:53;4.07;;;1.40;;
76837;SDS011;65797;47.352;8.164;2024-03-23T10:36:20;4.13;;;1.50;;
76837;SDS011;65797;47.352;8.164;2024-03-23T10:38:46;4.60;;;1.40;;
76837;SDS011;65797;47.352;8.164;2024-03-23T10:41:14;5.50;;;1.73;;
76837;SDS011;65797;47.352;8.164;2024-03-23T10:43:40;3.07;;;1.20;;
76837;SDS011;65797;47.352;8.164;2024-03-23T10:46:07;3.90;;;1.30;;
76837;SDS011;65797;47.352;8.164;2024-03-23T10:48:34;6.23;;;1.33;;
76837;SDS011;65797;47.352;8.164;2024-03-23T10:51:00;7.57;;;1.43;;
76837;SDS011;65797;47.352;8.164;2024-03-23T10:53:26;6.10;;;1.53;;
76837;SDS011;65797;47.352;8.164;2024-03-23T10:55:53;2.33;;;1.10;;
76837;SDS011;65797;47.352;8.164;2024-03-23T10:58:27;2.20;;;0.90;;
76837;SDS011;65797;47.352;8.164;2024-03-23T11:01:04;4.20;;;1.27;;
76837;SDS011;65797;47.352;8.164;2024-03-23T11:03:30;2.33;;;1.53;;
76837;SDS011;65797;47.352;8.164;2024-03-23T11:06:06;2.63;;;1.23;;
76837;SDS011;65797;47.352;8.164;2024-03-23T11:08:36;8.77;;;1.10;;
76837;SDS011;65797;47.352;8.164;2024-03-23T11:13:51;6.27;;;1.93;;
76837;SDS011;65797;47.352;8.164;2024-03-23T11:16:25;2.40;;;1.23;;
76837;SDS011;65797;47.352;8.164;2024-03-23T11:22:01;3.30;;;1.33;;
76837;SDS011;65797;47.352;8.164;2024-03-23T11:24:28;3.30;;;1.17;;
76837;SDS011;65797;47.352;8.164;2024-03-23T11:26:53;2.70;;;0.93;;
76837;SDS011;65797;47.352;8.164;2024-03-23T11:29:19;1.57;;;0.90;;
76837;SDS011;65797;47.352;8.164;2024-03-23T11:31:45;3.80;;;1.30;;
76837;SDS011;65797;47.352;8.164;2024-03-23T11:34:16;1.37;;;0.90;;
76837;SDS011;65797;47.352;8.164;2024-03-23T11:36:42;4.10;;;1.90;;
76837;SDS011;65797;47.352;8.164;2024-03-23T11:39:14;6.93;;;1.50;;
76837;SDS011;65797;47.352;8.164;2024-03-23T11:41:45;2.03;;;1.13;;
76837;SDS011;65797;47.352;8.164;2024-03-23T11:44:21;7.63;;;1.10;;
76837;SDS011;65797;47.352;8.164;2024-03-23T11:46:49;4.37;;;1.37;;
76837;SDS011;65797;47.352;8.164;2024-03-23T11:49:25;4.87;;;1.70;;
76837;SDS011;65797;47.352;8.164;2024-03-23T13:05:21;2.27;;;1.20;;
76837;SDS011;65797;47.352;8.164;2024-03-23T13:07:47;3.40;;;1.20;;
76837;SDS011;65797;47.352;8.164;2024-03-23T13:10:13;0.87;;;0.87;;
76837;SDS011;65797;47.352;8.164;2024-03-23T13:12:39;3.27;;;0.90;;
76837;SDS011;65797;47.352;8.164;2024-03-23T13:15:05;3.13;;;0.90;;
76837;SDS011;65797;47.352;8.164;2024-03-23T13:17:33;2.00;;;0.90;;
76837;SDS011;65797;47.352;8.164;2024-03-23T13:20:02;3.37;;;1.00;;
76837;SDS011;65797;47.352;8.164;2024-03-23T13:22:29;1.83;;;0.80;;
76837;SDS011;65797;47.352;8.164;2024-03-23T13:24:56;3.13;;;1.20;;
76837;SDS011;65797;47.352;8.164;2024-03-23T13:27:22;2.40;;;1.00;;
76837;SDS011;65797;47.352;8.164;2024-03-23T13:29:48;4.87;;;1.00;;
76837;SDS011;65797;47.352;8.164;2024-03-23T13:32:15;6.50;;;1.20;;
76837;SDS011;65797;47.352;8.164;2024-03-23T13:34:41;2.63;;;1.20;;
76837;SDS011;65797;47.352;8.164;2024-03-23T13:37:07;1.87;;;1.07;;
76837;SDS011;65797;47.352;8.164;2024-03-23T13:39:32;5.93;;;1.67;;
76837;SDS011;65797;47.352;8.164;2024-03-23T13:41:59;4.43;;;1.57;;
76837;SDS011;65797;47.352;8.164;2024-03-23T13:44:25;3.47;;;0.90;;
76837;SDS011;65797;47.352;8.164;2024-03-23T14:33:48;1.80;;;0.97;;
76837;SDS011;65797;47.352;8.164;2024-03-23T14:36:15;2.80;;;1.10;;
76837;SDS011;65797;47.352;8.164;2024-03-23T14:38:48;2.40;;;0.80;;
76837;SDS011;65797;47.352;8.164;2024-03-23T14:41:14;2.77;;;1.43;;
76837;SDS011;65797;47.352;8.164;2024-03-23T14:43:39;1.10;;;1.00;;
76837;SDS011;65797;47.352;8.164;2024-03-23T15:09:23;2.97;;;1.20;;
76837;SDS011;65797;47.352;8.164;2024-03-23T15:11:49;3.57;;;1.20;;
76837;SDS011;65797;47.352;8.164;2024-03-23T15:14:15;9.37;;;1.47;;
76837;SDS011;65797;47.352;8.164;2024-03-23T15:16:40;3.03;;;1.33;;
76837;SDS011;65797;47.352;8.164;2024-03-23T15:19:08;2.73;;;1.20;;
76837;SDS011;65797;47.352;8.164;2024-03-23T15:24:09;1.50;;;1.00;;
76837;SDS011;65797;47.352;8.164;2024-03-23T17:26:05;1.73;;;1.00;;
76837;SDS011;65797;47.352;8.164;2024-03-23T17:28:31;1.67;;;0.90;;
76837;SDS011;65797;47.352;8.164;2024-03-23T17:30:57;1.97;;;1.03;;
76837;SDS011;65797;47.352;8.164;2024-03-23T17:33:23;1.20;;;1.10;;
76837;SDS011;65797;47.352;8.164;2024-03-23T17:35:49;2.27;;;1.03;;
76837;SDS011;65797;47.352;8.164;2024-03-23T17:38:15;2.10;;;1.10;;
76837;SDS011;65797;47.352;8.164;2024-03-23T17:40:41;0.93;;;0.80;;
76837;SDS011;65797;47.352;8.164;2024-03-23T17:43:07;2.50;;;1.03;;
76837;SDS011;65797;47.352;8.164;2024-03-23T17:45:33;2.30;;;0.90;;
76837;SDS011;65797;47.352;8.164;2024-03-23T17:47:59;1.43;;;0.83;;
76837;SDS011;65797;47.352;8.164;2024-03-23T17:50:25;3.00;;;1.10;;
76837;SDS011;65797;47.352;8.164;2024-03-23T17:52:51;1.00;;;0.80;;
76837;SDS011;65797;47.352;8.164;2024-03-23T17:55:17;1.80;;;1.10;;
76837;SDS011;65797;47.352;8.164;2024-03-23T17:57:42;1.00;;;0.60;;
76837;SDS011;65797;47.352;8.164;2024-03-23T18:00:08;1.33;;;0.80;;
76837;SDS011;65797;47.352;8.164;2024-03-23T18:02:36;1.20;;;0.87;;
76837;SDS011;65797;47.352;8.164;2024-03-23T18:05:02;2.40;;;0.90;;
76837;SDS011;65797;47.352;8.164;2024-03-23T18:07:29;2.30;;;1.00;;
76837;SDS011;65797;47.352;8.164;2024-03-23T18:09:58;1.07;;;0.97;;
76837;SDS011;65797;47.352;8.164;2024-03-23T18:12:24;1.63;;;0.60;;
76837;SDS011;65797;47.352;8.164;2024-03-23T18:14:50;1.43;;;0.80;;
76837;SDS011;65797;47.352;8.164;2024-03-23T18:17:16;1.83;;;0.70;;
76837;SDS011;65797;47.352;8.164;2024-03-23T18:19:42;0.73;;;0.73;;
76837;SDS011;65797;47.352;8.164;2024-03-23T18:22:07;6.43;;;1.00;;
76837;SDS011;65797;47.352;8.164;2024-03-23T18:24:33;5.40;;;1.00;;
76837;SDS011;65797;47.352;8.164;2024-03-23T18:26:59;2.20;;;0.70;;
76837;SDS011;65797;47.352;8.164;2024-03-23T18:42:21;1.00;;;0.60;;
76837;SDS011;65797;47.352;8.164;2024-03-23T18:44:47;0.80;;;0.50;;
76837;SDS011;65797;47.352;8.164;2024-03-23T18:47:12;4.60;;;0.80;;
76837;SDS011;65797;47.352;8.164;2024-03-23T18:49:38;1.83;;;0.70;;
76837;SDS011;65797;47.352;8.164;2024-03-23T18:52:04;5.70;;;0.70;;
76837;SDS011;65797;47.352;8.164;2024-03-23T18:54:29;0.60;;;0.60;;
76837;SDS011;65797;47.352;8.164;2024-03-23T18:56:55;0.70;;;0.70;;
76837;SDS011;65797;47.352;8.164;2024-03-23T18:59:21;2.10;;;0.93;;
76837;SDS011;65797;47.352;8.164;2024-03-23T19:01:46;1.07;;;0.80;;
76837;SDS011;65797;47.352;8.164;2024-03-23T19:19:43;1.00;;;0.90;;
76837;SDS011;65797;47.352;8.164;2024-03-23T19:22:09;1.27;;;0.77;;
76837;SDS011;65797;47.352;8.164;2024-03-23T19:24:34;0.53;;;0.53;;
76837;SDS011;65797;47.352;8.164;2024-03-23T19:27:00;1.13;;;0.70;;
76837;SDS011;65797;47.352;8.164;2024-03-23T19:29:26;1.13;;;0.70;;
76837;SDS011;65797;47.352;8.164;2024-03-23T19:31:51;0.77;;;0.60;;
76837;SDS011;65797;47.352;8.164;2024-03-23T19:34:17;0.60;;;0.60;;
76837;SDS011;65797;47.352;8.164;2024-03-23T19:36:43;0.57;;;0.57;;
76837;SDS011;65797;47.352;8.164;2024-03-23T19:39:09;1.07;;;0.63;;
76837;SDS011;65797;47.352;8.164;2024-03-23T19:41:37;0.73;;;0.73;;
76837;SDS011;65797;47.352;8.164;2024-03-23T19:44:03;0.97;;;0.77;;
76837;SDS011;65797;47.352;8.164;2024-03-23T19:46:29;0.60;;;0.60;;
76837;SDS011;65797;47.352;8.164;2024-03-23T19:48:55;0.67;;;0.67;;
76837;SDS011;65797;47.352;8.164;2024-03-23T19:51:21;1.27;;;0.73;;
76837;SDS011;65797;47.352;8.164;2024-03-23T19:53:50;0.80;;;0.70;;
76837;SDS011;65797;47.352;8.164;2024-03-23T19:56:15;0.80;;;0.70;;
76837;SDS011;65797;47.352;8.164;2024-03-23T19:58:41;1.70;;;0.70;;
76837;SDS011;65797;47.352;8.164;2024-03-23T20:01:17;1.17;;;0.80;;
76837;SDS011;65797;47.352;8.164;2024-03-23T20:03:46;3.23;;;1.27;;
76837;SDS011;65797;47.352;8.164;2024-03-23T20:06:13;2.30;;;0.80;;
76837;SDS011;65797;47.352;8.164;2024-03-23T20:08:40;2.67;;;0.80;;
76837;SDS011;65797;47.352;8.164;2024-03-23T20:11:06;0.80;;;0.80;;
76837;SDS011;65797;47.352;8.164;2024-03-23T20:13:33;1.40;;;0.70;;
76837;SDS011;65797;47.352;8.164;2024-03-23T20:15:59;0.80;;;0.80;;
76837;SDS011;65797;47.352;8.164;2024-03-23T20:18:28;2.23;;;1.20;;
76837;SDS011;65797;47.352;8.164;2024-03-23T20:20:55;3.23;;;0.90;;
76837;SDS011;65797;47.352;8.164;2024-03-23T20:23:23;1.53;;;0.80;;
76837;SDS011;65797;47.352;8.164;2024-03-23T20:25:50;0.60;;;0.60;;
76837;SDS011;65797;47.352;8.164;2024-03-23T20:28:19;1.77;;;1.30;;
76837;SDS011;65797;47.352;8.164;2024-03-23T20:30:46;0.77;;;0.77;;
76837;SDS011;65797;47.352;8.164;2024-03-23T20:33:12;2.93;;;0.80;;
76837;SDS011;65797;47.352;8.164;2024-03-23T20:35:56;0.97;;;0.70;;
76837;SDS011;65797;47.352;8.164;2024-03-23T20:38:22;1.30;;;0.60;;
76837;SDS011;65797;47.352;8.164;2024-03-23T20:40:54;1.13;;;0.70;;
76837;SDS011;65797;47.352;8.164;2024-03-23T20:43:21;1.00;;;0.60;;
76837;SDS011;65797;47.352;8.164;2024-03-23T20:45:54;0.70;;;0.70;;
76837;SDS011;65797;47.352;8.164;2024-03-23T20:48:24;0.87;;;0.80;;
76837;SDS011;65797;47.352;8.164;2024-03-23T20:53:23;1.43;;;0.80;;
76837;SDS011;65797;47.352;8.164;2024-03-23T20:55:55;2.20;;;0.70;;
76837;SDS011;65797;47.352;8.164;2024-03-23T20:58:23;0.70;;;0.60;;
76837;SDS011;65797;47.352;8.164;2024-03-23T21:00:50;8.10;;;0.83;;
76837;SDS011;65797;47.352;8.164;2024-03-23T21:03:16;0.73;;;0.57;;
76837;SDS011;65797;47.352;8.164;2024-03-23T21:05:42;2.30;;;0.70;;
76837;SDS011;65797;47.352;8.164;2024-03-23T21:08:09;1.23;;;0.67;;
76837;SDS011;65797;47.352;8.164;2024-03-23T21:10:35;0.60;;;0.60;;
76837;SDS011;65797;47.352;8.164;2024-03-23T21:13:00;0.50;;;0.50;;
76837;SDS011;65797;47.352;8.164;2024-03-23T21:15:26;1.10;;;1.00;;
76837;SDS011;65797;47.352;8.164;2024-03-23T21:17:52;0.60;;;0.60;;
76837;SDS011;65797;47.352;8.164;2024-03-23T21:20:18;1.00;;;0.70;;
76837;SDS011;65797;47.352;8.164;2024-03-23T21:22:44;0.93;;;0.60;;
76837;SDS011;65797;47.352;8.164;2024-03-23T21:25:10;0.70;;;0.57;;
76837;SDS011;65797;47.352;8.164;2024-03-23T21:27:37;6.53;;;0.80;;
76837;SDS011;65797;47.352;8.164;2024-03-23T21:30:03;1.63;;;0.80;;
76837;SDS011;65797;47.352;8.164;2024-03-23T21:32:30;1.70;;;0.63;;
76837;SDS011;65797;47.352;8.164;2024-03-23T21:34:55;0.90;;;0.67;;
76837;SDS011;65797;47.352;8.164;2024-03-23T21:37:21;0.57;;;0.57;;
76837;SDS011;65797;47.352;8.164;2024-03-23T21:39:47;0.80;;;0.60;;
76837;SDS011;65797;47.352;8.164;2024-03-23T21:42:13;2.77;;;0.80;;
76837;SDS011;65797;47.352;8.164;2024-03-23T21:49:47;2.00;;;0.90;;
76837;SDS011;65797;47.352;8.164;2024-03-23T21:52:13;1.60;;;0.77;;
76837;SDS011;65797;47.352;8.164;2024-03-23T21:54:39;0.63;;;0.63;;
76837;SDS011;65797;47.352;8.164;2024-03-23T21:57:05;1.90;;;0.60;;
76837;SDS011;65797;47.352;8.164;2024-03-23T21:59:31;0.80;;;0.60;;
76837;SDS011;65797;47.352;8.164;2024-03-23T22:01:57;0.80;;;0.80;;
76837;SDS011;65797;47.352;8.164;2024-03-23T22:04:22;0.73;;;0.60;;
76837;SDS011;65797;47.352;8.164;2024-03-23T22:06:48;2.73;;;0.80;;
76837;SDS011;65797;47.352;8.164;2024-03-23T22:09:14;1.97;;;0.70;;
76837;SDS011;65797;47.352;8.164;2024-03-23T22:11:39;1.30;;;0.80;;
76837;SDS011;65797;47.352;8.164;2024-03-23T22:14:05;3.40;;;1.03;;
76837;SDS011;65797;47.352;8.164;2024-03-23T22:16:31;1.20;;;0.70;;
76837;SDS011;65797;47.352;8.164;2024-03-23T22:18:57;0.97;;;0.70;;
76837;SDS011;65797;47.352;8.164;2024-03-23T22:21:23;2.87;;;0.80;;
76837;SDS011;65797;47.352;8.164;2024-03-23T22:23:48;1.53;;;0.80;;
76837;SDS011;65797;47.352;8.164;2024-03-23T22:26:14;1.03;;;0.70;;
76837;SDS011;65797;47.352;8.164;2024-03-23T22:28:40;1.27;;;0.60;;
76837;SDS011;65797;47.352;8.164;2024-03-23T22:31:06;1.20;;;1.10;;
76837;SDS011;65797;47.352;8.164;2024-03-23T22:33:32;0.67;;;0.67;;
76837;SDS011;65797;47.352;8.164;2024-03-23T22:35:58;2.40;;;0.87;;
76837;SDS011;65797;47.352;8.164;2024-03-23T22:38:25;1.33;;;0.60;;
76837;SDS011;65797;47.352;8.164;2024-03-23T22:41:01;1.37;;;0.70;;
76837;SDS011;65797;47.352;8.164;2024-03-23T22:43:28;8.43;;;1.07;;
76837;SDS011;65797;47.352;8.164;2024-03-23T22:46:07;0.70;;;0.63;;
76837;SDS011;65797;47.352;8.164;2024-03-23T22:48:34;2.73;;;1.00;;
76837;SDS011;65797;47.352;8.164;2024-03-23T22:51:01;0.90;;;0.80;;
76837;SDS011;65797;47.352;8.164;2024-03-23T22:53:28;1.07;;;0.70;;
76837;SDS011;65797;47.352;8.164;2024-03-23T22:55:55;0.80;;;0.80;;
76837;SDS011;65797;47.352;8.164;2024-03-23T22:58:22;1.47;;;0.87;;
76837;SDS011;65797;47.352;8.164;2024-03-23T23:00:49;1.33;;;0.70;;
76837;SDS011;65797;47.352;8.164;2024-03-23T23:03:17;1.90;;;0.80;;
76837;SDS011;65797;47.352;8.164;2024-03-23T23:05:44;1.63;;;0.83;;
76837;SDS011;65797;47.352;8.164;2024-03-23T23:08:11;1.37;;;0.80;;
76837;SDS011;65797;47.352;8.164;2024-03-23T23:10:38;1.50;;;0.80;;
76837;SDS011;65797;47.352;8.164;2024-03-23T23:13:10;4.70;;;0.90;;
76837;SDS011;65797;47.352;8.164;2024-03-23T23:15:36;0.70;;;0.70;;
76837;SDS011;65797;47.352;8.164;2024-03-23T23:18:01;2.40;;;0.80;;
76837;SDS011;65797;47.352;8.164;2024-03-23T23:20:28;2.07;;;1.10;;
76837;SDS011;65797;47.352;8.164;2024-03-23T23:22:54;1.37;;;0.90;;
76837;SDS011;65797;47.352;8.164;2024-03-23T23:25:20;2.00;;;0.80;;
76837;SDS011;65797;47.352;8.164;2024-03-23T23:27:46;0.80;;;0.80;;
76837;SDS011;65797;47.352;8.164;2024-03-23T23:30:11;2.20;;;0.93;;
76837;SDS011;65797;47.352;8.164;2024-03-23T23:32:37;2.50;;;0.90;;
76837;SDS011;65797;47.352;8.164;2024-03-23T23:35:03;2.20;;;1.07;;
76837;SDS011;65797;47.352;8.164;2024-03-23T23:37:29;1.03;;;0.83;;
76837;SDS011;65797;47.352;8.164;2024-03-23T23:39:55;1.37;;;0.80;;
76837;SDS011;65797;47.352;8.164;2024-03-23T23:42:21;2.30;;;1.00;;
76837;SDS011;65797;47.352;8.164;2024-03-23T23:44:49;7.00;;;1.33;;
76837;SDS011;65797;47.352;8.164;2024-03-23T23:55:44;4.80;;;1.10;;
76837;SDS011;65797;47.352;8.164;2024-03-23T23:58:10;2.13;;;0.90;;
